Site contains unofficial IBTrACS data. Visit the IBTrACS Website to access archived data.

1893 NOT_NAMED (1893011S14059)


IBTrACS version v04r00. Visit IBTrACS website for data access.
Please direct all questions to the IBTrACS Q and A forum

Storm track - Intensity - Wind Radii - Intensity Data - Source Data - All data

Summary Information

Storm ID 1893011S14059
Start Jan 11 00Z
Landfall Jan 14 15Z, Jan 16 12Z
End Jan 18 00Z
ATCF IDs
Track status Best track data.

Storm track plot

Map of storm track

Intensity plots

No Intensity information for this storm


Radial wind information

No radial wind information for this storm


Position and Intensity Table

BASIN ISO_TIME_________ NATURE LAT LON
degrees north degrees east
SI 1893-01-11 00:00:00 TS -13.90 59.00
SI 03:00:00 TS -14.00 58.85
SI 06:00:00 TS -14.10 58.70
SI 09:00:00 TS -14.20 58.56
SI 12:00:00 TS -14.30 58.40
SI 15:00:00 TS -14.40 58.21
SI 18:00:00 TS -14.50 58.00
SI 21:00:00 TS -14.57 57.84
SI 1893-01-12 00:00:00 TS -14.70 57.60
SI 03:00:00 TS -14.96 57.14
SI 06:00:00 TS -15.30 56.60
SI 09:00:00 TS -15.64 56.15
SI 12:00:00 TS -16.00 55.70
SI 15:00:00 TS -16.36 55.21
SI 18:00:00 TS -16.70 54.70
SI 21:00:00 TS -17.02 54.13
SI 1893-01-13 00:00:00 TS -17.30 53.60
SI 03:00:00 TS -17.56 53.18
SI 06:00:00 TS -17.80 52.80
SI 09:00:00 TS -18.01 52.39
SI 12:00:00 TS -18.20 52.00
SI 15:00:00 TS -18.35 51.65
SI 18:00:00 TS -18.50 51.30
SI 21:00:00 TS -18.69 50.90
SI 1893-01-14 00:00:00 TS -18.90 50.50
SI 03:00:00 TS -19.11 50.15
SI 06:00:00 TS -19.30 49.80
SI 09:00:00 TS -19.46 49.40
SI 12:00:00 TS -19.60 49.00
SI 15:00:00 TS -19.76 48.65
SI 18:00:00 TS -19.90 48.30
SI 21:00:00 TS -20.00 47.93
SI 1893-01-15 00:00:00 TS -20.10 47.50
SI 03:00:00 TS -20.25 46.98
SI 06:00:00 TS -20.40 46.40
SI 09:00:00 TS -20.51 45.81
SI 12:00:00 TS -20.60 45.20
SI 15:00:00 TS -20.64 44.60
SI 18:00:00 TS -20.70 44.00
SI 21:00:00 TS -20.81 43.31
SI 1893-01-16 00:00:00 TS -21.00 42.80
SI 03:00:00 TS -21.28 42.66
SI 06:00:00 TS -21.60 42.80
SI 09:00:00 TS -21.92 43.07
SI 12:00:00 TS -22.20 43.40
SI 15:00:00 TS -22.37 43.61
SI 18:00:00 TS -22.50 43.80
SI 21:00:00 TS -22.65 44.04
SI 1893-01-17 00:00:00 TS -22.80 44.30
SI 03:00:00 TS -22.96 44.54
SI 06:00:00 TS -23.10 44.80
SI 09:00:00 TS -23.21 45.10
SI 12:00:00 TS -23.30 45.40
SI 15:00:00 TS -23.40 45.66
SI 18:00:00 TS -23.50 45.90
SI 21:00:00 TS -23.60 46.15
SI 1893-01-18 00:00:00 TS -23.70 46.40

Source Information

Agency Information
USA
TOKYO
CMA
HKO
NEWDELHI
REUNION
BOM
NADI
WELLINGTON
DS824 s_hem.dat:77:NOT NAMED
TD9636
TD9635
NEUMANN
MLC

All available IBTrACS Data

SEASON BASIN SUBBASIN ISO_TIME_________ NATURE LAT LON DIST2LAND LANDFALL IFLAG USA SSHS DS824 LAT DS824 LON DS824 STAGE STORM SPEED STORM DIR
Year degrees north degrees east km km 1 degrees north degrees east kts degrees
1893 SI MM 1893-01-11 00:00:00 TS -13.90 59.00 707 694 _________O____ -1 -13.90 59.00 TC 4 236
1893 SI MM 03:00:00 TS -14.00 58.85 692 679 _________P____ -1 -14.00 58.85 TC 4 236
1893 SI MM 06:00:00 TS -14.10 58.70 679 667 _________O____ -1 -14.10 58.70 TC 3 235
1893 SI MM 09:00:00 TS -14.20 58.56 667 653 _________P____ -1 -14.20 58.56 TC 4 236
1893 SI MM 12:00:00 TS -14.30 58.40 653 640 _________O____ -1 -14.30 58.40 TC 4 239
1893 SI MM 15:00:00 TS -14.40 58.21 640 627 _________P____ -1 -14.40 58.21 TC 4 243
1893 SI MM 18:00:00 TS -14.50 58.00 627 615 _________O____ -1 -14.50 58.00 TC 4 244
1893 SI MM 21:00:00 TS -14.57 57.84 615 604 _________P____ -1 -14.57 57.84 TC 4 243
1893 SI MM 1893-01-12 00:00:00 TS -14.70 57.60 604 582 _________O____ -1 -14.70 57.60 TC 8 240
1893 SI MM 03:00:00 TS -14.96 57.14 572 543 _________P____ -1 -14.96 57.14 TC 11 238
1893 SI MM 06:00:00 TS -15.30 56.60 545 521 _________O____ -1 -15.30 56.60 TC 12 234
1893 SI MM 09:00:00 TS -15.64 56.15 524 492 _________P____ -1 -15.64 56.15 TC 11 231
1893 SI MM 12:00:00 TS -16.00 55.70 496 479 _________O____ -1 -16.00 55.70 TC 12 232
1893 SI MM 15:00:00 TS -16.36 55.21 479 471 _________P____ -1 -16.36 55.21 TC 12 234
1893 SI MM 18:00:00 TS -16.70 54.70 471 433 _________O____ -1 -16.70 54.70 TC 12 238
1893 SI MM 21:00:00 TS -17.02 54.13 424 389 _________P____ -1 -17.02 54.13 TC 12 240
1893 SI MM 1893-01-13 00:00:00 TS -17.30 53.60 389 360 _________O____ -1 -17.30 53.60 TC 11 239
1893 SI MM 03:00:00 TS -17.56 53.18 366 337 _________P____ -1 -17.56 53.18 TC 9 237
1893 SI MM 06:00:00 TS -17.80 52.80 337 306 _________O____ -1 -17.80 52.80 TC 9 239
1893 SI MM 09:00:00 TS -18.01 52.39 306 270 _________P____ -1 -18.01 52.39 TC 9 242
1893 SI MM 12:00:00 TS -18.20 52.00 270 242 _________O____ -1 -18.20 52.00 TC 8 245
1893 SI MM 15:00:00 TS -18.35 51.65 232 203 _________P____ -1 -18.35 51.65 TC 7 246
1893 SI MM 18:00:00 TS -18.50 51.30 203 167 _________O____ -1 -18.50 51.30 TC 8 244
1893 SI MM 21:00:00 TS -18.69 50.90 167 138 _________P____ -1 -18.69 50.90 TC 9 242
1893 SI MM 1893-01-14 00:00:00 TS -18.90 50.50 138 114 _________O____ -1 -18.90 50.50 TC 8 240
1893 SI MM 03:00:00 TS -19.11 50.15 104 80 _________P____ -1 -19.11 50.15 TC 8 239
1893 SI MM 06:00:00 TS -19.30 49.80 80 47 _________O____ -1 -19.30 49.80 TC 8 244
1893 SI MM 09:00:00 TS -19.46 49.40 53 20 _________P____ -1 -19.46 49.40 TC 8 248
1893 SI MM 12:00:00 TS -19.60 49.00 20 0 _________O____ -1 -19.60 49.00 TC 8 247
1893 SI MM 15:00:00 TS -19.76 48.65 0 0 _________P____ -1 -19.76 48.65 TC 7 245
1893 SI MM 18:00:00 TS -19.90 48.30 0 0 _________O____ -1 -19.90 48.30 TC 7 250
1893 SI MM 21:00:00 TS -20.00 47.93 0 0 _________P____ -1 -20.00 47.93 TC 8 255
1893 SI MM 1893-01-15 00:00:00 TS -20.10 47.50 0 0 _________O____ -1 -20.10 47.50 TC 9 254
1893 SI MM 03:00:00 TS -20.25 46.98 0 0 _________P____ -1 -20.25 46.98 TC 11 254
1893 SI MM 06:00:00 TS -20.40 46.40 0 0 _________O____ -1 -20.40 46.40 TC 11 256
1893 SI MM 09:00:00 TS -20.51 45.81 0 0 _________P____ -1 -20.51 45.81 TC 11 260
1893 SI MM 12:00:00 TS -20.60 45.20 0 0 _________O____ -1 -20.60 45.20 TC 11 264
1893 SI MM 15:00:00 TS -20.64 44.60 0 0 _________P____ -1 -20.64 44.60 TC 11 265
1893 SI MM 18:00:00 TS -20.70 44.00 0 0 _________O____ -1 -20.70 44.00 TC 12 262
1893 SI MM 21:00:00 TS -20.81 43.31 62 62 _________P____ -1 -20.81 43.31 TC 12 255
1893 SI MM 1893-01-16 00:00:00 TS -21.00 42.80 85 83 _________O____ -1 -21.00 42.80 TC 8 232
1893 SI MM 03:00:00 TS -21.28 42.66 83 65 _________P____ -1 -21.28 42.66 TC 6 179
1893 SI MM 06:00:00 TS -21.60 42.80 65 23 _________O____ -1 -21.60 42.80 TC 8 150
1893 SI MM 09:00:00 TS -21.92 43.07 23 0 _________P____ -1 -21.92 43.07 TC 8 137
1893 SI MM 12:00:00 TS -22.20 43.40 0 0 _________O____ -1 -22.20 43.40 TC 7 132
1893 SI MM 15:00:00 TS -22.37 43.61 0 0 _________P____ -1 -22.37 43.61 TC 5 129
1893 SI MM 18:00:00 TS -22.50 43.80 0 0 _________O____ -1 -22.50 43.80 TC 5 125
1893 SI MM 21:00:00 TS -22.65 44.04 0 0 _________P____ -1 -22.65 44.04 TC 6 123
1893 SI MM 1893-01-17 00:00:00 TS -22.80 44.30 0 0 _________O____ -1 -22.80 44.30 TC 6 124
1893 SI MM 03:00:00 TS -22.96 44.54 0 0 _________P____ -1 -22.96 44.54 TC 6 123
1893 SI MM 06:00:00 TS -23.10 44.80 0 0 _________O____ -1 -23.10 44.80 TC 6 116
1893 SI MM 09:00:00 TS -23.21 45.10 0 0 _________P____ -1 -23.21 45.10 TC 6 110
1893 SI MM 12:00:00 TS -23.30 45.40 0 0 _________O____ -1 -23.30 45.40 TC 5 111
1893 SI MM 15:00:00 TS -23.40 45.66 0 0 _________P____ -1 -23.40 45.66 TC 5 113
1893 SI MM 18:00:00 TS -23.50 45.90 0 0 _________O____ -1 -23.50 45.90 TC 5 114
1893 SI MM 21:00:00 TS -23.60 46.15 0 0 _________P____ -1 -23.60 46.15 TC 5 114
1893 SI MM 1893-01-18 00:00:00 TS -23.70 46.40 0 _________O____ -1 -23.70 46.40 TC 5 114